KBGD/BGD METAR and TAF weather

Enter ICAO airport designator
Station Type Date Time Source
KBGD METAR 2018/01/19 22:51 UTC NOAA

KBGD 192251Z AUTO 20012G19KT 10SM CLR 21/M09 A2975 RMK AO2 SLP058 T02061094


Station Type Date Time Source
KBGD Decoded METAR 2018/01/19 22:51 UTC NOAA

BORGER HUTCHINSON CO AIRPORT , TX, United States (KBGD) 35-42N 101-24W 927M
Jan 19, 2018 - 05:51 PM EST / 2018.01.19 2251 UTC
Wind: from the SSW (200 degrees) at 14 MPH (12 KT) gusting to 22 MPH (19 KT):0
Visibility: 10 mile(s):0
Sky conditions: clear
Temperature: 69.1 F (20.6 C)
Dew Point: 15.1 F (-9.4 C)
Relative Humidity: 12%
Pressure (altimeter): 29.75 in. Hg (1007 hPa)
ob: KBGD 192251Z AUTO 20012G19KT 10SM CLR 21/M09 A2975 RMK AO2 SLP058 T02061094
cycle: 23

Station Type Date Time Source
KBGD TAF UTC NOAA

Error!


Example: see airport list